sensor_id;sensor_type;location;lat;lon;timestamp;temperature;humidity
21612;DHT22;47005;52.292;13.452;2023-09-19T00:00:42;19.20;99.90
21612;DHT22;47005;52.292;13.452;2023-09-19T00:03:09;19.20;99.90
21612;DHT22;47005;52.292;13.452;2023-09-19T00:05:37;19.10;99.90
21612;DHT22;47005;52.292;13.452;2023-09-19T00:08:09;19.10;99.90
21612;DHT22;47005;52.292;13.452;2023-09-19T00:10:35;19.10;99.90
21612;DHT22;47005;52.292;13.452;2023-09-19T00:13:03;19.10;99.90
21612;DHT22;47005;52.292;13.452;2023-09-19T00:15:40;19.10;99.90
21612;DHT22;47005;52.292;13.452;2023-09-19T00:18:06;19.00;99.90
21612;DHT22;47005;52.292;13.452;2023-09-19T00:20:32;19.00;99.90
21612;DHT22;47005;52.292;13.452;2023-09-19T00:23:00;19.00;99.90
21612;DHT22;47005;52.292;13.452;2023-09-19T00:25:28;19.00;99.90
21612;DHT22;47005;52.292;13.452;2023-09-19T00:27:54;19.00;99.90
21612;DHT22;47005;52.292;13.452;2023-09-19T00:30:21;19.00;99.90
21612;DHT22;47005;52.292;13.452;2023-09-19T00:32:50;19.00;99.90
21612;DHT22;47005;52.292;13.452;2023-09-19T00:35:21;19.00;99.90
21612;DHT22;47005;52.292;13.452;2023-09-19T00:37:50;18.90;99.90
21612;DHT22;47005;52.292;13.452;2023-09-19T00:40:16;18.90;99.90
21612;DHT22;47005;52.292;13.452;2023-09-19T00:42:43;18.90;99.90
21612;DHT22;47005;52.292;13.452;2023-09-19T00:45:10;18.90;99.90
21612;DHT22;47005;52.292;13.452;2023-09-19T00:47:41;18.90;99.90
21612;DHT22;47005;52.292;13.452;2023-09-19T00:50:08;18.90;99.90
21612;DHT22;47005;52.292;13.452;2023-09-19T00:52:38;18.90;99.90
21612;DHT22;47005;52.292;13.452;2023-09-19T00:55:08;18.90;99.90
21612;DHT22;47005;52.292;13.452;2023-09-19T00:57:36;18.90;99.90
21612;DHT22;47005;52.292;13.452;2023-09-19T01:00:04;18.80;99.90
21612;DHT22;47005;52.292;13.452;2023-09-19T01:02:36;18.80;99.90
21612;DHT22;47005;52.292;13.452;2023-09-19T01:05:02;18.80;99.90
21612;DHT22;47005;52.292;13.452;2023-09-19T01:07:30;18.80;99.90
21612;DHT22;47005;52.292;13.452;2023-09-19T01:10:00;18.80;99.90
21612;DHT22;47005;52.292;13.452;2023-09-19T01:12:38;18.80;99.90
21612;DHT22;47005;52.292;13.452;2023-09-19T01:20:32;18.70;99.90
21612;DHT22;47005;52.292;13.452;2023-09-19T01:23:20;18.70;99.90
21612;DHT22;47005;52.292;13.452;2023-09-19T01:26:52;18.70;99.90
21612;DHT22;47005;52.292;13.452;2023-09-19T01:28:53;18.70;99.90
21612;DHT22;47005;52.292;13.452;2023-09-19T01:31:23;18.70;99.90
21612;DHT22;47005;52.292;13.452;2023-09-19T01:34:03;18.70;99.90
21612;DHT22;47005;52.292;13.452;2023-09-19T01:36:35;18.70;99.90
21612;DHT22;47005;52.292;13.452;2023-09-19T01:39:05;18.70;99.90
21612;DHT22;47005;52.292;13.452;2023-09-19T01:47:22;18.60;99.90
21612;DHT22;47005;52.292;13.452;2023-09-19T01:50:01;18.60;99.90
21612;DHT22;47005;52.292;13.452;2023-09-19T01:52:30;18.60;99.90
21612;DHT22;47005;52.292;13.452;2023-09-19T01:55:05;18.60;99.90
21612;DHT22;47005;52.292;13.452;2023-09-19T02:00:30;18.60;99.90
21612;DHT22;47005;52.292;13.452;2023-09-19T02:02:58;18.60;99.90
21612;DHT22;47005;52.292;13.452;2023-09-19T02:05:25;18.60;99.90
21612;DHT22;47005;52.292;13.452;2023-09-19T02:07:54;18.60;99.90
21612;DHT22;47005;52.292;13.452;2023-09-19T02:10:21;18.60;99.90
21612;DHT22;47005;52.292;13.452;2023-09-19T02:12:48;18.50;99.90
21612;DHT22;47005;52.292;13.452;2023-09-19T02:15:14;18.50;99.90
21612;DHT22;47005;52.292;13.452;2023-09-19T02:17:42;18.50;99.90
21612;DHT22;47005;52.292;13.452;2023-09-19T02:20:08;18.50;99.90
21612;DHT22;47005;52.292;13.452;2023-09-19T02:22:35;18.50;99.90
21612;DHT22;47005;52.292;13.452;2023-09-19T02:25:01;18.50;99.90
21612;DHT22;47005;52.292;13.452;2023-09-19T02:27:30;18.50;99.90
21612;DHT22;47005;52.292;13.452;2023-09-19T02:29:56;18.40;99.90
21612;DHT22;47005;52.292;13.452;2023-09-19T02:32:22;18.40;99.90
21612;DHT22;47005;52.292;13.452;2023-09-19T02:34:48;18.40;99.90
21612;DHT22;47005;52.292;13.452;2023-09-19T02:37:14;18.40;99.90
21612;DHT22;47005;52.292;13.452;2023-09-19T02:39:41;18.40;99.90
21612;DHT22;47005;52.292;13.452;2023-09-19T02:42:07;18.40;99.90
21612;DHT22;47005;52.292;13.452;2023-09-19T02:44:33;18.40;99.90
21612;DHT22;47005;52.292;13.452;2023-09-19T02:46:59;18.40;99.90
21612;DHT22;47005;52.292;13.452;2023-09-19T02:49:25;18.30;99.90
21612;DHT22;47005;52.292;13.452;2023-09-19T02:51:51;18.30;99.90
21612;DHT22;47005;52.292;13.452;2023-09-19T02:54:17;18.30;99.90
21612;DHT22;47005;52.292;13.452;2023-09-19T02:56:43;18.30;99.90
21612;DHT22;47005;52.292;13.452;2023-09-19T02:59:09;18.30;99.90
21612;DHT22;47005;52.292;13.452;2023-09-19T03:01:38;18.30;99.90
21612;DHT22;47005;52.292;13.452;2023-09-19T03:04:04;18.30;99.90
21612;DHT22;47005;52.292;13.452;2023-09-19T03:06:31;18.30;99.90
21612;DHT22;47005;52.292;13.452;2023-09-19T03:08:58;18.30;99.90
21612;DHT22;47005;52.292;13.452;2023-09-19T03:11:25;18.20;99.90
21612;DHT22;47005;52.292;13.452;2023-09-19T03:13:52;18.30;99.90
21612;DHT22;47005;52.292;13.452;2023-09-19T03:16:18;18.30;99.90
21612;DHT22;47005;52.292;13.452;2023-09-19T03:18:47;18.20;99.90
21612;DHT22;47005;52.292;13.452;2023-09-19T03:21:15;18.20;99.90
21612;DHT22;47005;52.292;13.452;2023-09-19T03:23:40;18.30;99.90
21612;DHT22;47005;52.292;13.452;2023-09-19T03:26:06;18.20;99.90
21612;DHT22;47005;52.292;13.452;2023-09-19T03:28:33;18.20;99.90
21612;DHT22;47005;52.292;13.452;2023-09-19T03:31:04;18.30;99.90
21612;DHT22;47005;52.292;13.452;2023-09-19T03:33:30;18.30;99.90
21612;DHT22;47005;52.292;13.452;2023-09-19T03:36:00;18.20;99.90
21612;DHT22;47005;52.292;13.452;2023-09-19T03:38:27;18.20;99.90
21612;DHT22;47005;52.292;13.452;2023-09-19T03:40:53;18.20;99.90
21612;DHT22;47005;52.292;13.452;2023-09-19T03:43:19;18.20;99.90
21612;DHT22;47005;52.292;13.452;2023-09-19T03:45:45;18.20;99.90
21612;DHT22;47005;52.292;13.452;2023-09-19T03:48:12;18.30;99.90
21612;DHT22;47005;52.292;13.452;2023-09-19T03:50:38;18.20;99.90
21612;DHT22;47005;52.292;13.452;2023-09-19T03:53:05;18.20;99.90
21612;DHT22;47005;52.292;13.452;2023-09-19T03:55:33;18.20;99.90
21612;DHT22;47005;52.292;13.452;2023-09-19T03:58:01;18.20;99.90
21612;DHT22;47005;52.292;13.452;2023-09-19T04:00:27;18.20;99.90
21612;DHT22;47005;52.292;13.452;2023-09-19T04:02:53;18.20;99.90
21612;DHT22;47005;52.292;13.452;2023-09-19T04:05:19;18.20;99.90
21612;DHT22;47005;52.292;13.452;2023-09-19T04:07:44;18.20;99.90
21612;DHT22;47005;52.292;13.452;2023-09-19T04:10:10;18.20;99.90
21612;DHT22;47005;52.292;13.452;2023-09-19T04:12:40;18.20;99.90
21612;DHT22;47005;52.292;13.452;2023-09-19T04:15:06;18.10;99.90
21612;DHT22;47005;52.292;13.452;2023-09-19T04:17:32;18.20;99.90
21612;DHT22;47005;52.292;13.452;2023-09-19T04:20:01;18.20;99.90
21612;DHT22;47005;52.292;13.452;2023-09-19T04:22:26;18.20;99.90
21612;DHT22;47005;52.292;13.452;2023-09-19T04:24:52;18.10;99.90
21612;DHT22;47005;52.292;13.452;2023-09-19T04:27:17;18.10;99.90
21612;DHT22;47005;52.292;13.452;2023-09-19T04:29:44;18.20;99.90
21612;DHT22;47005;52.292;13.452;2023-09-19T04:32:10;18.10;99.90
21612;DHT22;47005;52.292;13.452;2023-09-19T04:34:36;18.10;99.90
21612;DHT22;47005;52.292;13.452;2023-09-19T04:37:03;18.10;99.90
21612;DHT22;47005;52.292;13.452;2023-09-19T04:39:29;18.10;99.90
21612;DHT22;47005;52.292;13.452;2023-09-19T04:41:55;18.10;99.90
21612;DHT22;47005;52.292;13.452;2023-09-19T04:44:21;18.10;99.90
21612;DHT22;47005;52.292;13.452;2023-09-19T04:46:47;18.00;99.90
21612;DHT22;47005;52.292;13.452;2023-09-19T04:49:13;18.10;99.90
21612;DHT22;47005;52.292;13.452;2023-09-19T04:51:39;18.00;99.90
21612;DHT22;47005;52.292;13.452;2023-09-19T04:54:05;18.00;99.90
21612;DHT22;47005;52.292;13.452;2023-09-19T04:56:32;18.00;99.90
21612;DHT22;47005;52.292;13.452;2023-09-19T04:58:58;18.00;99.90
21612;DHT22;47005;52.292;13.452;2023-09-19T05:01:24;18.00;99.90
21612;DHT22;47005;52.292;13.452;2023-09-19T05:03:50;18.00;99.90
21612;DHT22;47005;52.292;13.452;2023-09-19T05:06:18;18.00;99.90
21612;DHT22;47005;52.292;13.452;2023-09-19T05:08:46;17.90;99.90
21612;DHT22;47005;52.292;13.452;2023-09-19T05:11:19;17.90;99.90
21612;DHT22;47005;52.292;13.452;2023-09-19T05:13:49;17.90;99.90
21612;DHT22;47005;52.292;13.452;2023-09-19T05:16:16;17.90;99.90
21612;DHT22;47005;52.292;13.452;2023-09-19T05:18:42;17.90;99.90
21612;DHT22;47005;52.292;13.452;2023-09-19T05:21:07;17.90;99.90
21612;DHT22;47005;52.292;13.452;2023-09-19T05:23:33;17.90;99.90
21612;DHT22;47005;52.292;13.452;2023-09-19T05:25:59;17.80;99.90
21612;DHT22;47005;52.292;13.452;2023-09-19T05:28:26;17.80;99.90
21612;DHT22;47005;52.292;13.452;2023-09-19T05:30:52;17.80;99.90
21612;DHT22;47005;52.292;13.452;2023-09-19T05:33:18;17.80;99.90
21612;DHT22;47005;52.292;13.452;2023-09-19T05:35:44;17.80;99.90
21612;DHT22;47005;52.292;13.452;2023-09-19T05:38:12;17.80;99.90
21612;DHT22;47005;52.292;13.452;2023-09-19T05:40:39;17.80;99.90
21612;DHT22;47005;52.292;13.452;2023-09-19T05:43:08;17.80;99.90
21612;DHT22;47005;52.292;13.452;2023-09-19T05:45:34;17.80;99.90
21612;DHT22;47005;52.292;13.452;2023-09-19T05:48:14;17.80;99.90
21612;DHT22;47005;52.292;13.452;2023-09-19T05:50:41;17.80;99.90
21612;DHT22;47005;52.292;13.452;2023-09-19T05:53:07;17.80;99.90
21612;DHT22;47005;52.292;13.452;2023-09-19T05:55:33;17.70;99.90
21612;DHT22;47005;52.292;13.452;2023-09-19T05:57:59;17.70;99.90
21612;DHT22;47005;52.292;13.452;2023-09-19T06:00:26;17.70;99.90
21612;DHT22;47005;52.292;13.452;2023-09-19T06:02:58;17.70;99.90
21612;DHT22;47005;52.292;13.452;2023-09-19T06:05:25;17.70;99.90
21612;DHT22;47005;52.292;13.452;2023-09-19T06:07:52;17.70;99.90
21612;DHT22;47005;52.292;13.452;2023-09-19T06:10:18;17.70;99.90
21612;DHT22;47005;52.292;13.452;2023-09-19T06:12:46;17.70;99.90
21612;DHT22;47005;52.292;13.452;2023-09-19T06:15:13;17.70;99.90
21612;DHT22;47005;52.292;13.452;2023-09-19T06:17:52;17.70;99.90
21612;DHT22;47005;52.292;13.452;2023-09-19T06:20:21;17.70;99.90
21612;DHT22;47005;52.292;13.452;2023-09-19T06:22:48;17.80;99.90
21612;DHT22;47005;52.292;13.452;2023-09-19T06:25:15;17.70;99.90
21612;DHT22;47005;52.292;13.452;2023-09-19T06:27:47;17.80;99.90
21612;DHT22;47005;52.292;13.452;2023-09-19T06:30:14;17.80;99.90
21612;DHT22;47005;52.292;13.452;2023-09-19T06:32:40;17.80;99.90
21612;DHT22;47005;52.292;13.452;2023-09-19T06:35:10;17.80;99.90
21612;DHT22;47005;52.292;13.452;2023-09-19T06:37:40;17.80;99.90
21612;DHT22;47005;52.292;13.452;2023-09-19T06:40:10;17.80;99.90
21612;DHT22;47005;52.292;13.452;2023-09-19T06:42:44;17.80;99.90
21612;DHT22;47005;52.292;13.452;2023-09-19T06:45:11;17.80;99.90
21612;DHT22;47005;52.292;13.452;2023-09-19T06:47:47;17.80;99.90
21612;DHT22;47005;52.292;13.452;2023-09-19T06:50:20;17.80;99.90
21612;DHT22;47005;52.292;13.452;2023-09-19T06:52:51;17.80;99.90
21612;DHT22;47005;52.292;13.452;2023-09-19T06:55:21;17.80;99.90
21612;DHT22;47005;52.292;13.452;2023-09-19T06:57:49;17.80;99.90
21612;DHT22;47005;52.292;13.452;2023-09-19T07:00:15;17.80;99.90
21612;DHT22;47005;52.292;13.452;2023-09-19T07:02:55;17.90;99.90
21612;DHT22;47005;52.292;13.452;2023-09-19T07:05:21;17.90;99.90
21612;DHT22;47005;52.292;13.452;2023-09-19T07:07:47;17.90;99.90
21612;DHT22;47005;52.292;13.452;2023-09-19T07:10:12;17.90;99.90
21612;DHT22;47005;52.292;13.452;2023-09-19T07:12:38;17.90;99.90
21612;DHT22;47005;52.292;13.452;2023-09-19T07:15:05;18.00;99.90
21612;DHT22;47005;52.292;13.452;2023-09-19T07:17:31;17.90;99.90
21612;DHT22;47005;52.292;13.452;2023-09-19T07:19:58;18.00;99.90
21612;DHT22;47005;52.292;13.452;2023-09-19T07:22:26;18.00;99.90
21612;DHT22;47005;52.292;13.452;2023-09-19T07:24:51;18.00;99.90
21612;DHT22;47005;52.292;13.452;2023-09-19T07:27:17;18.10;99.90
21612;DHT22;47005;52.292;13.452;2023-09-19T07:29:43;18.10;99.90
21612;DHT22;47005;52.292;13.452;2023-09-19T07:32:10;18.10;99.90
21612;DHT22;47005;52.292;13.452;2023-09-19T07:34:37;18.20;99.90
21612;DHT22;47005;52.292;13.452;2023-09-19T07:37:04;18.20;99.90
21612;DHT22;47005;52.292;13.452;2023-09-19T07:39:30;18.30;99.90
21612;DHT22;47005;52.292;13.452;2023-09-19T07:41:55;18.30;99.90
21612;DHT22;47005;52.292;13.452;2023-09-19T07:44:22;18.30;99.90
21612;DHT22;47005;52.292;13.452;2023-09-19T07:46:48;18.40;99.90
21612;DHT22;47005;52.292;13.452;2023-09-19T07:49:16;18.40;99.90
21612;DHT22;47005;52.292;13.452;2023-09-19T07:51:43;18.40;99.90
21612;DHT22;47005;52.292;13.452;2023-09-19T07:54:12;18.50;99.90
21612;DHT22;47005;52.292;13.452;2023-09-19T07:56:38;18.50;99.90
21612;DHT22;47005;52.292;13.452;2023-09-19T07:59:03;18.50;99.90
21612;DHT22;47005;52.292;13.452;2023-09-19T08:01:29;18.60;99.90
21612;DHT22;47005;52.292;13.452;2023-09-19T08:03:55;18.60;99.90
21612;DHT22;47005;52.292;13.452;2023-09-19T08:06:21;18.60;99.90
21612;DHT22;47005;52.292;13.452;2023-09-19T08:08:47;18.60;99.90
21612;DHT22;47005;52.292;13.452;2023-09-19T08:11:15;18.60;99.90
21612;DHT22;47005;52.292;13.452;2023-09-19T08:13:47;18.60;99.90
21612;DHT22;47005;52.292;13.452;2023-09-19T08:16:15;18.70;99.90
21612;DHT22;47005;52.292;13.452;2023-09-19T08:18:41;18.70;99.90
21612;DHT22;47005;52.292;13.452;2023-09-19T08:21:06;18.70;99.90
21612;DHT22;47005;52.292;13.452;2023-09-19T08:23:37;18.70;99.90
21612;DHT22;47005;52.292;13.452;2023-09-19T08:26:04;18.70;99.90
21612;DHT22;47005;52.292;13.452;2023-09-19T08:28:32;18.70;99.90
21612;DHT22;47005;52.292;13.452;2023-09-19T08:31:02;18.70;99.90
21612;DHT22;47005;52.292;13.452;2023-09-19T08:33:33;18.70;99.90
21612;DHT22;47005;52.292;13.452;2023-09-19T08:35:59;18.70;99.50
21612;DHT22;47005;52.292;13.452;2023-09-19T08:38:25;18.70;99.80
21612;DHT22;47005;52.292;13.452;2023-09-19T08:40:57;18.70;98.80
21612;DHT22;47005;52.292;13.452;2023-09-19T08:43:24;18.70;99.20
21612;DHT22;47005;52.292;13.452;2023-09-19T08:45:49;18.70;99.30
21612;DHT22;47005;52.292;13.452;2023-09-19T08:48:28;18.70;99.00
21612;DHT22;47005;52.292;13.452;2023-09-19T08:50:56;18.70;99.10
21612;DHT22;47005;52.292;13.452;2023-09-19T08:53:54;18.70;98.70
21612;DHT22;47005;52.292;13.452;2023-09-19T08:56:26;18.70;98.70
21612;DHT22;47005;52.292;13.452;2023-09-19T08:59:00;18.70;99.00
21612;DHT22;47005;52.292;13.452;2023-09-19T09:01:28;18.70;97.60
21612;DHT22;47005;52.292;13.452;2023-09-19T09:03:55;18.70;96.90
21612;DHT22;47005;52.292;13.452;2023-09-19T09:06:22;18.70;96.30
21612;DHT22;47005;52.292;13.452;2023-09-19T09:08:50;18.70;96.20
21612;DHT22;47005;52.292;13.452;2023-09-19T09:11:18;18.70;96.20
21612;DHT22;47005;52.292;13.452;2023-09-19T09:13:44;18.60;96.30
21612;DHT22;47005;52.292;13.452;2023-09-19T09:16:10;18.60;96.00
21612;DHT22;47005;52.292;13.452;2023-09-19T09:18:36;18.60;96.20
21612;DHT22;47005;52.292;13.452;2023-09-19T09:21:02;18.60;96.40
21612;DHT22;47005;52.292;13.452;2023-09-19T09:23:30;18.60;96.10
21612;DHT22;47005;52.292;13.452;2023-09-19T09:25:58;18.60;95.80
21612;DHT22;47005;52.292;13.452;2023-09-19T09:28:32;18.60;95.80
21612;DHT22;47005;52.292;13.452;2023-09-19T09:30:59;18.60;95.50
21612;DHT22;47005;52.292;13.452;2023-09-19T09:33:28;18.60;95.50
21612;DHT22;47005;52.292;13.452;2023-09-19T09:35:58;18.60;95.00
21612;DHT22;47005;52.292;13.452;2023-09-19T09:38:44;18.60;94.10
21612;DHT22;47005;52.292;13.452;2023-09-19T09:41:11;18.70;95.00
21612;DHT22;47005;52.292;13.452;2023-09-19T09:43:41;18.60;93.80
21612;DHT22;47005;52.292;13.452;2023-09-19T09:46:15;18.70;94.30
21612;DHT22;47005;52.292;13.452;2023-09-19T09:48:57;18.70;93.40
21612;DHT22;47005;52.292;13.452;2023-09-19T09:51:43;18.70;92.70
21612;DHT22;47005;52.292;13.452;2023-09-19T09:54:13;18.70;93.00
21612;DHT22;47005;52.292;13.452;2023-09-19T09:56:59;18.70;93.50
21612;DHT22;47005;52.292;13.452;2023-09-19T09:59:57;18.70;93.90
21612;DHT22;47005;52.292;13.452;2023-09-19T10:02:38;18.80;93.40
21612;DHT22;47005;52.292;13.452;2023-09-19T10:05:19;18.80;92.70
21612;DHT22;47005;52.292;13.452;2023-09-19T10:07:49;18.80;93.30
21612;DHT22;47005;52.292;13.452;2023-09-19T10:10:36;18.80;93.30
21612;DHT22;47005;52.292;13.452;2023-09-19T10:13:09;18.90;93.10
21612;DHT22;47005;52.292;13.452;2023-09-19T10:15:39;18.90;92.40
21612;DHT22;47005;52.292;13.452;2023-09-19T10:18:14;18.90;92.20
21612;DHT22;47005;52.292;13.452;2023-09-19T10:20:45;18.90;92.50
21612;DHT22;47005;52.292;13.452;2023-09-19T10:23:12;18.90;92.60
21612;DHT22;47005;52.292;13.452;2023-09-19T10:25:42;18.90;92.90
21612;DHT22;47005;52.292;13.452;2023-09-19T10:28:10;18.90;91.70
21612;DHT22;47005;52.292;13.452;2023-09-19T10:30:43;18.90;92.10
21612;DHT22;47005;52.292;13.452;2023-09-19T10:33:11;19.00;90.00
21612;DHT22;47005;52.292;13.452;2023-09-19T10:35:40;18.90;90.30
21612;DHT22;47005;52.292;13.452;2023-09-19T10:38:07;19.00;91.00
21612;DHT22;47005;52.292;13.452;2023-09-19T10:40:35;19.00;91.10
21612;DHT22;47005;52.292;13.452;2023-09-19T10:43:06;19.00;91.60
21612;DHT22;47005;52.292;13.452;2023-09-19T10:45:33;19.00;90.10
21612;DHT22;47005;52.292;13.452;2023-09-19T10:48:00;19.10;91.20
21612;DHT22;47005;52.292;13.452;2023-09-19T10:50:31;19.10;90.60
21612;DHT22;47005;52.292;13.452;2023-09-19T10:53:00;19.10;90.50
21612;DHT22;47005;52.292;13.452;2023-09-19T10:55:31;19.10;90.60
21612;DHT22;47005;52.292;13.452;2023-09-19T10:57:58;19.10;89.30
21612;DHT22;47005;52.292;13.452;2023-09-19T11:00:59;19.10;90.00
21612;DHT22;47005;52.292;13.452;2023-09-19T11:03:30;19.10;90.00
21612;DHT22;47005;52.292;13.452;2023-09-19T11:06:18;19.10;89.00
21612;DHT22;47005;52.292;13.452;2023-09-19T11:08:57;19.10;89.80
21612;DHT22;47005;52.292;13.452;2023-09-19T11:14:29;19.20;88.40
21612;DHT22;47005;52.292;13.452;2023-09-19T11:20:21;19.20;89.00
21612;DHT22;47005;52.292;13.452;2023-09-19T11:30:47;19.20;89.00
21612;DHT22;47005;52.292;13.452;2023-09-19T11:46:52;19.40;89.90
21612;DHT22;47005;52.292;13.452;2023-09-19T11:49:19;19.40;89.40
21612;DHT22;47005;52.292;13.452;2023-09-19T11:51:52;19.40;89.80
21612;DHT22;47005;52.292;13.452;2023-09-19T11:54:17;19.40;90.10
21612;DHT22;47005;52.292;13.452;2023-09-19T11:56:45;19.40;89.50
21612;DHT22;47005;52.292;13.452;2023-09-19T11:59:11;19.40;87.00
21612;DHT22;47005;52.292;13.452;2023-09-19T12:01:38;19.40;87.20
21612;DHT22;47005;52.292;13.452;2023-09-19T12:04:11;19.40;88.60
21612;DHT22;47005;52.292;13.452;2023-09-19T12:06:37;19.50;88.50
21612;DHT22;47005;52.292;13.452;2023-09-19T12:09:12;19.50;88.50
21612;DHT22;47005;52.292;13.452;2023-09-19T12:11:42;19.50;88.60
21612;DHT22;47005;52.292;13.452;2023-09-19T12:14:11;19.50;88.10
21612;DHT22;47005;52.292;13.452;2023-09-19T12:16:54;19.50;88.90
21612;DHT22;47005;52.292;13.452;2023-09-19T12:19:21;19.50;87.40
21612;DHT22;47005;52.292;13.452;2023-09-19T12:22:00;19.50;86.60
21612;DHT22;47005;52.292;13.452;2023-09-19T12:24:34;19.60;88.70
21612;DHT22;47005;52.292;13.452;2023-09-19T12:27:07;19.60;87.60
21612;DHT22;47005;52.292;13.452;2023-09-19T12:29:45;19.60;88.90
21612;DHT22;47005;52.292;13.452;2023-09-19T12:32:11;19.60;89.40
21612;DHT22;47005;52.292;13.452;2023-09-19T12:34:38;19.60;89.10
21612;DHT22;47005;52.292;13.452;2023-09-19T12:37:13;19.60;88.70
21612;DHT22;47005;52.292;13.452;2023-09-19T12:39:52;19.60;89.10
21612;DHT22;47005;52.292;13.452;2023-09-19T12:42:25;19.70;89.60
21612;DHT22;47005;52.292;13.452;2023-09-19T12:44:58;19.70;89.70
21612;DHT22;47005;52.292;13.452;2023-09-19T12:47:27;19.70;89.60
21612;DHT22;47005;52.292;13.452;2023-09-19T12:52:52;19.70;88.10
21612;DHT22;47005;52.292;13.452;2023-09-19T12:57:58;19.70;86.20
21612;DHT22;47005;52.292;13.452;2023-09-19T13:06:00;19.80;87.00
21612;DHT22;47005;52.292;13.452;2023-09-19T13:08:35;19.80;86.90
21612;DHT22;47005;52.292;13.452;2023-09-19T13:13:39;19.80;87.10
21612;DHT22;47005;52.292;13.452;2023-09-19T13:16:05;19.80;88.10
21612;DHT22;47005;52.292;13.452;2023-09-19T13:21:16;19.80;87.30
21612;DHT22;47005;52.292;13.452;2023-09-19T13:23:55;19.80;86.90
21612;DHT22;47005;52.292;13.452;2023-09-19T13:26:27;19.80;87.00
21612;DHT22;47005;52.292;13.452;2023-09-19T13:28:54;19.90;86.90
21612;DHT22;47005;52.292;13.452;2023-09-19T13:31:20;19.90;86.50
21612;DHT22;47005;52.292;13.452;2023-09-19T13:33:47;19.90;86.90
21612;DHT22;47005;52.292;13.452;2023-09-19T13:36:13;19.90;86.30
21612;DHT22;47005;52.292;13.452;2023-09-19T13:38:42;19.90;85.30
21612;DHT22;47005;52.292;13.452;2023-09-19T13:41:12;19.90;86.50
21612;DHT22;47005;52.292;13.452;2023-09-19T13:43:38;20.00;87.40
21612;DHT22;47005;52.292;13.452;2023-09-19T13:46:04;20.00;87.10
21612;DHT22;47005;52.292;13.452;2023-09-19T13:48:30;20.00;87.70
21612;DHT22;47005;52.292;13.452;2023-09-19T13:50:56;20.00;85.70
21612;DHT22;47005;52.292;13.452;2023-09-19T13:53:22;20.10;84.30
21612;DHT22;47005;52.292;13.452;2023-09-19T13:55:49;20.00;85.80
21612;DHT22;47005;52.292;13.452;2023-09-19T13:58:14;20.10;82.90
21612;DHT22;47005;52.292;13.452;2023-09-19T14:00:40;20.10;85.10
21612;DHT22;47005;52.292;13.452;2023-09-19T14:03:06;20.10;84.20
21612;DHT22;47005;52.292;13.452;2023-09-19T14:05:32;20.10;84.80
21612;DHT22;47005;52.292;13.452;2023-09-19T14:07:58;20.10;85.30
21612;DHT22;47005;52.292;13.452;2023-09-19T14:10:25;20.10;85.20
21612;DHT22;47005;52.292;13.452;2023-09-19T14:12:53;20.20;86.10
21612;DHT22;47005;52.292;13.452;2023-09-19T14:15:18;20.20;86.60
21612;DHT22;47005;52.292;13.452;2023-09-19T14:17:44;20.20;86.20
21612;DHT22;47005;52.292;13.452;2023-09-19T14:20:12;20.20;85.00
21612;DHT22;47005;52.292;13.452;2023-09-19T14:22:39;20.20;86.00
21612;DHT22;47005;52.292;13.452;2023-09-19T14:25:05;20.20;86.40
21612;DHT22;47005;52.292;13.452;2023-09-19T14:27:31;20.20;85.60
21612;DHT22;47005;52.292;13.452;2023-09-19T14:29:56;20.20;86.20
21612;DHT22;47005;52.292;13.452;2023-09-19T14:32:23;20.20;86.00
21612;DHT22;47005;52.292;13.452;2023-09-19T14:34:48;20.20;86.00
21612;DHT22;47005;52.292;13.452;2023-09-19T14:37:14;20.20;84.50
21612;DHT22;47005;52.292;13.452;2023-09-19T14:39:42;20.20;84.70
21612;DHT22;47005;52.292;13.452;2023-09-19T14:42:10;20.20;84.80
21612;DHT22;47005;52.292;13.452;2023-09-19T14:44:36;20.20;84.90
21612;DHT22;47005;52.292;13.452;2023-09-19T14:47:03;20.20;83.30
21612;DHT22;47005;52.292;13.452;2023-09-19T14:49:33;20.20;82.00
21612;DHT22;47005;52.292;13.452;2023-09-19T14:51:59;20.20;83.50
21612;DHT22;47005;52.292;13.452;2023-09-19T14:54:24;20.20;84.30
21612;DHT22;47005;52.292;13.452;2023-09-19T14:56:50;20.20;82.90
21612;DHT22;47005;52.292;13.452;2023-09-19T14:59:30;20.10;84.00
21612;DHT22;47005;52.292;13.452;2023-09-19T15:01:55;20.10;83.90
21612;DHT22;47005;52.292;13.452;2023-09-19T15:04:21;20.10;83.20
21612;DHT22;47005;52.292;13.452;2023-09-19T15:06:47;20.10;83.40
21612;DHT22;47005;52.292;13.452;2023-09-19T15:09:14;20.10;83.80
21612;DHT22;47005;52.292;13.452;2023-09-19T15:11:39;20.10;83.10
21612;DHT22;47005;52.292;13.452;2023-09-19T15:14:08;20.10;84.40
21612;DHT22;47005;52.292;13.452;2023-09-19T15:16:33;20.10;84.40
21612;DHT22;47005;52.292;13.452;2023-09-19T15:19:01;20.10;84.40
21612;DHT22;47005;52.292;13.452;2023-09-19T15:21:26;20.10;85.10
21612;DHT22;47005;52.292;13.452;2023-09-19T15:23:52;20.10;85.10
21612;DHT22;47005;52.292;13.452;2023-09-19T15:26:18;20.10;85.80
21612;DHT22;47005;52.292;13.452;2023-09-19T15:28:46;20.10;85.60
21612;DHT22;47005;52.292;13.452;2023-09-19T15:31:12;20.10;86.00
21612;DHT22;47005;52.292;13.452;2023-09-19T15:33:38;20.10;86.30
21612;DHT22;47005;52.292;13.452;2023-09-19T15:39:08;20.10;86.50
21612;DHT22;47005;52.292;13.452;2023-09-19T15:41:38;20.10;86.50
21612;DHT22;47005;52.292;13.452;2023-09-19T15:44:05;20.10;86.70
21612;DHT22;47005;52.292;13.452;2023-09-19T15:46:35;20.10;86.10
21612;DHT22;47005;52.292;13.452;2023-09-19T15:49:01;20.00;85.60
21612;DHT22;47005;52.292;13.452;2023-09-19T15:51:27;20.00;84.60
21612;DHT22;47005;52.292;13.452;2023-09-19T15:53:54;20.00;85.80
21612;DHT22;47005;52.292;13.452;2023-09-19T15:56:22;20.00;86.10
21612;DHT22;47005;52.292;13.452;2023-09-19T15:58:49;20.00;86.20
21612;DHT22;47005;52.292;13.452;2023-09-19T16:01:16;20.00;85.90
21612;DHT22;47005;52.292;13.452;2023-09-19T16:03:50;20.00;84.50
21612;DHT22;47005;52.292;13.452;2023-09-19T16:06:19;20.00;85.80
21612;DHT22;47005;52.292;13.452;2023-09-19T16:08:47;20.00;85.40
21612;DHT22;47005;52.292;13.452;2023-09-19T16:11:14;20.00;85.20
21612;DHT22;47005;52.292;13.452;2023-09-19T16:13:41;20.00;85.40
21612;DHT22;47005;52.292;13.452;2023-09-19T16:16:09;20.00;84.40
21612;DHT22;47005;52.292;13.452;2023-09-19T16:18:57;20.00;84.50
21612;DHT22;47005;52.292;13.452;2023-09-19T16:21:26;20.00;84.70
21612;DHT22;47005;52.292;13.452;2023-09-19T16:23:53;19.90;84.60
21612;DHT22;47005;52.292;13.452;2023-09-19T16:26:20;19.90;85.10